Overview Statistics Trail Chart Weather Telemetry Raw packets
 

This is the latest recevied weather packets stored in our database for station/object N7WLC. If no packets are shown the sender has not sent any weather packets the latest 10 day(s).

<< 1 2 3 4 >>
Time Temp. Humidity Pressure Rain* Wind** Luminosity Snow
1788597793 16.11° C 96% 1013.7 hPa 0 mm 0 m/s - -
1788595993 16.11° C 96% 1013.9 hPa 0 mm 0 m/s - -
1788594192 16.11° C 95% 1014 hPa 0 mm 0 m/s - -
1788592392 16.11° C 94% 1013.7 hPa 0 mm 0 m/s - -
1788590593 16.11° C 93% 1013.8 hPa 0 mm 0 m/s - -
1788588793 16.67° C 92% 1013.7 hPa 0 mm 0 m/s - -
1788586994 16.67° C 92% 1013.4 hPa 0 mm 0 m/s - -
1788585193 17.22° C 92% 1013.7 hPa 0 mm 0 m/s - -
1788583393 17.22° C 91% 1013.6 hPa 0 mm 0 m/s - -
1788581592 17.78° C 89% 1013.3 hPa 0 mm 0 m/s - -
1788579792 18.33° C 87% 1013.1 hPa 0 mm 0 m/s - -
1788578014 18.89° C 84% 1012.8 hPa 0 mm 0 m/s - -
1788576193 19.44° C 80% 1013 hPa 0 mm 0 m/s - -
1788574392 20.56° C 75% 1012.8 hPa 0 mm 0 m/s - -
1788572592 21.67° C 70% 1012.9 hPa 0 mm 0 m/s - -
1788570792 22.22° C 68% 1013.1 hPa 0 mm 0.45 m/s, 264° - -
1788568991 23.33° C 64% 1012.7 hPa 0 mm 0 m/s - -
1788567192 23.33° C 63% 1012.8 hPa 0 mm 0.45 m/s, 253° - -
1788565392 24.44° C 61% 1013 hPa 0 mm 0 m/s - -
1788563591 25° C 59% 1012.7 hPa 0 mm 0.45 m/s, 250° - -
1788561792 26.11° C 56% 1012.7 hPa 0 mm 0.45 m/s, 247° - -
1788559991 26.67° C 57% 1012.7 hPa 0 mm 0 m/s - -
1788558192 26.11° C 57% 1012.9 hPa 0 mm 0.45 m/s, 224° - -
1788556392 27.78° C 52% 1012.9 hPa 0 mm 0.45 m/s, 189° - -
1788554591 28.33° C 51% 1012.9 hPa 0 mm 0.89 m/s, 228° - -

* Rain latest hour (hover to see other rain measurements)
** Current wind speed in m/s (hover to see current wind gust speed)